Time;durP1;ratioP1;P1;durP2;ratioP2;P2;SDS_P1;SDS_P2;PMS_P1;PMS_P2;Temp;Humidity;BMP_temperature;BMP_pressure;BME280_temperature;BME280_humidity;BME280_pressure;Samples;Min_cycle;Max_cycle;Signal;HPM_P1;HPM_P2
2021/04/27 00:04:17;;;;;;;55.85;24.60;;;;;;;3.07;53.21;99032.23;4095103;87;21191;-90
2021/04/27 00:10:21;;;;;;;62.00;23.52;;;;;;;3.09;54.28;99026.75;4097305;85;21190;-88
2021/04/27 00:16:23;;;;;;;46.20;19.05;;;;;;;3.11;54.05;99012.90;4120222;86;21186;-88
2021/04/27 00:22:25;;;;;;;72.03;28.80;;;;;;;3.15;55.43;99011.12;4119667;86;21167;-90
2021/04/27 00:28:26;;;;;;;81.25;31.62;;;;;;;3.07;55.38;99015.45;4119442;86;21175;-89
2021/04/27 00:34:28;;;;;;;78.83;30.88;;;;;;;2.73;54.89;99002.08;4119908;86;21615;-88
2021/04/27 00:40:32;;;;;;;63.25;28.30;;;;;;;2.57;55.56;99003.70;4120139;86;21178;-89
2021/04/27 00:46:33;;;;;;;68.07;28.92;;;;;;;2.39;56.67;99002.72;4119735;86;21218;-88
2021/04/27 00:52:37;;;;;;;70.55;26.57;;;;;;;2.34;56.59;99005.58;4119529;86;21202;-88
2021/04/27 00:58:38;;;;;;;52.15;24.15;;;;;;;2.08;56.20;98992.67;4119454;86;21194;-89
2021/04/27 01:04:40;;;;;;;60.23;27.15;;;;;;;1.87;57.60;98994.42;4119542;86;21202;-88
2021/04/27 01:10:50;;;;;;;61.37;22.80;;;;;;;1.76;57.91;98991.80;4118388;85;21235;-89
2021/04/27 01:17:09;;;;;;;52.95;22.25;;;;;;;1.44;57.28;98986.31;4111427;87;21198;-88
2021/04/27 01:23:30;;;;;;;55.63;24.45;;;;;;;1.49;57.50;98992.89;4626918;76;22652;-90
2021/04/27 01:29:34;;;;;;;54.80;25.85;;;;;;;1.43;58.80;98982.02;4517410;79;21154;-87
2021/04/27 01:35:38;;;;;;;58.15;23.98;;;;;;;1.38;58.99;98975.41;4519084;79;21677;-87
2021/04/27 01:41:42;;;;;;;56.08;24.02;;;;;;;1.22;59.14;98958.89;4519631;79;21595;-88
2021/04/27 01:47:44;;;;;;;48.50;20.30;;;;;;;1.10;59.24;98980.83;4519128;79;21172;-89
2021/04/27 01:53:47;;;;;;;50.90;21.10;;;;;;;0.88;60.11;98977.67;4518944;79;21153;-87
2021/04/27 01:59:48;;;;;;;39.90;18.55;;;;;;;0.73;59.53;98982.14;4519687;79;21157;-86
2021/04/27 02:05:52;;;;;;;48.95;18.98;;;;;;;0.40;60.08;98984.91;4517440;79;21134;-89
2021/04/27 02:12:11;;;;;;;46.23;20.45;;;;;;;0.40;60.18;98982.77;4522159;79;22924;-89
2021/04/27 02:18:21;;;;;;;40.03;17.80;;;;;;;0.20;59.76;98987.31;4456421;80;21551;-89
2021/04/27 02:24:24;;;;;;;46.25;19.90;;;;;;;-0.10;60.51;98982.94;4456679;80;21213;-89
2021/04/27 02:30:26;;;;;;;44.30;18.57;;;;;;;-0.21;61.26;98982.92;4455961;80;21197;-89
2021/04/27 02:36:28;;;;;;;44.60;19.52;;;;;;;-0.14;61.50;98987.31;4456885;80;21153;-90
2021/04/27 02:42:51;;;;;;;42.70;18.67;;;;;;;-0.21;62.01;98984.27;4626016;76;23406;-88
2021/04/27 02:49:00;;;;;;;45.60;20.90;;;;;;;-0.39;61.92;98985.75;4515561;79;21845;-87
2021/04/27 02:55:05;;;;;;;35.60;16.50;;;;;;;-0.49;62.48;98977.39;4519382;79;21145;-88
2021/04/27 03:01:08;;;;;;;38.03;16.37;;;;;;;-0.49;62.34;98978.73;4518578;79;21173;-89
2021/04/27 03:07:10;;;;;;;33.23;15.73;;;;;;;-0.46;62.63;98982.70;4518842;79;21141;-89
2021/04/27 03:13:14;;;;;;;34.93;15.13;;;;;;;-0.50;63.36;98979.81;4517537;79;21153;-88
2021/04/27 03:19:27;;;;;;;31.83;13.83;;;;;;;-0.66;62.43;98979.89;4518359;79;21169;-88
2021/04/27 03:25:42;;;;;;;29.40;13.03;;;;;;;-0.90;62.55;98987.42;4433109;79;23406;-88
2021/04/27 03:31:46;;;;;;;34.03;13.93;;;;;;;-0.81;63.96;98993.67;4368499;81;21173;-89
2021/04/27 03:37:47;;;;;;;36.30;14.13;;;;;;;-0.71;63.01;98985.41;4369581;81;21134;-88
2021/04/27 03:43:49;;;;;;;34.60;14.77;;;;;;;-0.74;62.84;98990.05;4356269;81;21649;-90
2021/04/27 03:49:51;;;;;;;36.37;14.93;;;;;;;-0.84;62.48;98984.88;4296815;83;21169;-89
2021/04/27 03:55:53;;;;;;;37.90;14.07;;;;;;;-0.93;62.94;98993.94;4296750;81;21153;-88
2021/04/27 04:01:56;;;;;;;35.43;13.47;;;;;;;-1.01;62.95;98985.23;4295407;83;21657;-88
2021/04/27 04:07:58;;;;;;;29.47;12.60;;;;;;;-1.07;63.21;98985.08;4266620;83;21168;-89
2021/04/27 04:14:03;;;;;;;31.47;12.60;;;;;;;-1.11;63.37;98986.22;4293219;83;21176;-90
2021/04/27 04:20:11;;;;;;;30.50;12.70;;;;;;;-1.07;63.71;99001.20;4294477;81;21386;-88
2021/04/27 04:26:15;;;;;;;27.93;12.33;;;;;;;-1.02;64.29;99003.80;4310805;82;21124;-89
2021/04/27 04:32:18;;;;;;;31.03;12.57;;;;;;;-0.88;65.22;99008.08;4309344;83;21164;-89
2021/04/27 04:38:39;;;;;;;26.87;12.37;;;;;;;-0.73;64.98;99014.47;4310291;82;21125;-89
2021/04/27 04:44:54;;;;;;;28.70;13.70;;;;;;;-0.44;65.64;99015.47;4626163;76;23343;-87
2021/04/27 04:51:14;;;;;;;24.47;12.70;;;;;;;-0.12;65.40;99028.72;4518563;79;21558;-88
2021/04/27 04:57:34;;;;;;;29.07;13.47;;;;;;;0.41;66.02;99038.23;4593945;77;22920;-87
2021/04/27 05:03:36;;;;;;;29.50;12.70;;;;;;;0.74;65.52;99032.23;4555112;78;21133;-89
2021/04/27 05:09:56;;;;;;;33.63;13.53;;;;;;;1.11;64.95;99031.73;4555841;78;21125;-88
2021/04/27 05:16:03;;;;;;;26.43;12.07;;;;;;;1.34;62.97;99034.61;4554048;78;21129;-87
2021/04/27 05:22:08;;;;;;;33.92;12.33;;;;;;;1.60;62.52;99035.99;4555534;78;21559;-87
2021/04/27 05:28:10;;;;;;;21.00;10.37;;;;;;;1.84;62.47;99036.34;4556377;78;21109;-89
2021/04/27 05:34:12;;;;;;;24.85;10.13;;;;;;;2.14;61.98;99048.91;4557640;78;21173;-88
2021/04/27 05:40:15;;;;;;;30.70;10.85;;;;;;;2.49;61.43;99042.92;4557465;78;21129;-88
2021/04/27 05:46:17;;;;;;;24.90;10.75;;;;;;;2.87;61.35;99051.88;4554482;78;21148;-88
2021/04/27 05:52:19;;;;;;;20.82;10.55;;;;;;;3.26;60.84;99060.26;4557026;78;21176;-87
2021/04/27 05:58:20;;;;;;;25.85;11.10;;;;;;;3.60;60.28;99058.17;4557483;78;21097;-89
2021/04/27 06:04:23;;;;;;;29.48;11.38;;;;;;;4.05;60.00;99048.30;4533124;78;21177;-90
2021/04/27 06:10:24;;;;;;;21.05;10.65;;;;;;;4.44;59.12;99052.42;4474825;80;21138;-89
2021/04/27 06:16:27;;;;;;;24.57;11.20;;;;;;;5.06;58.93;99053.03;4474383;78;21112;-88
2021/04/27 06:22:29;;;;;;;29.27;11.12;;;;;;;5.44;58.45;99056.25;4445663;80;21565;-88
2021/04/27 06:28:32;;;;;;;19.70;10.05;;;;;;;5.83;57.89;99053.41;4473596;80;21829;-90
2021/04/27 06:34:34;;;;;;;23.38;9.05;;;;;;;6.17;57.44;99061.83;4473012;80;21132;-88
2021/04/27 06:40:37;;;;;;;24.95;9.45;;;;;;;6.40;56.49;99066.95;4472680;80;21155;-90
2021/04/27 06:46:39;;;;;;;19.95;9.63;;;;;;;6.53;55.86;99068.30;4473159;80;21152;-89
2021/04/27 06:52:41;;;;;;;24.63;10.45;;;;;;;6.88;55.70;99067.88;4473468;80;21140;-89
2021/04/27 06:58:43;;;;;;;15.28;8.08;;;;;;;7.04;54.99;99075.51;4473100;80;21438;-88
2021/04/27 07:04:45;;;;;;;16.65;8.48;;;;;;;7.00;53.80;99077.36;4487852;78;21138;-88
2021/04/27 07:10:47;;;;;;;15.45;6.97;;;;;;;6.92;52.98;99072.86;4473005;80;21154;-90
2021/04/27 07:16:49;;;;;;;15.03;7.97;;;;;;;7.26;52.37;99079.80;4472270;80;21623;-89
2021/04/27 07:22:50;;;;;;;14.47;6.87;;;;;;;7.37;52.14;99082.22;4475127;78;21105;-89
2021/04/27 07:28:53;;;;;;;17.45;7.45;;;;;;;7.46;50.99;99076.02;4513060;78;21134;-89
2021/04/27 07:34:54;;;;;;;15.80;7.50;;;;;;;7.48;50.29;99079.75;4464571;79;21157;-89
2021/04/27 07:40:56;;;;;;;15.63;7.72;;;;;;;7.61;50.02;99077.93;4484776;78;21117;-88
2021/04/27 07:46:58;;;;;;;16.93;8.25;;;;;;;7.93;47.61;99082.20;4472013;79;21142;-88
2021/04/27 07:53:00;;;;;;;10.93;6.30;;;;;;;8.63;48.14;99078.84;4472529;79;21174;-89
2021/04/27 07:59:04;;;;;;;11.15;6.37;;;;;;;9.37;47.84;99079.66;4455020;78;21416;-89
2021/04/27 08:05:08;;;;;;;13.30;7.03;;;;;;;10.00;46.73;99075.78;4481456;79;21131;-93
2021/04/27 08:11:12;;;;;;;12.45;5.78;;;;;;;10.49;46.02;99067.48;4441747;79;21162;-93
2021/04/27 08:17:14;;;;;;;8.68;5.10;;;;;;;10.62;44.59;99072.90;4458243;79;21175;-91
2021/04/27 08:23:20;;;;;;;11.45;6.30;;;;;;;10.70;44.83;99077.30;4485496;79;21131;-92
2021/04/27 08:29:22;;;;;;;10.53;6.50;;;;;;;10.99;41.60;99065.52;4480320;79;21142;-92
2021/04/27 08:35:33;;;;;;;12.07;5.70;;;;;;;11.18;42.08;99070.81;4485521;79;21154;-92
2021/04/27 08:41:37;;;;;;;13.25;4.62;;;;;;;11.18;41.52;99070.81;4484888;79;21157;-92
2021/04/27 08:47:39;;;;;;;8.30;4.97;;;;;;;11.22;40.62;99072.19;4480631;79;21158;-94
2021/04/27 08:53:41;;;;;;;10.72;5.70;;;;;;;10.51;36.24;99067.30;4464290;79;21139;-93
2021/04/27 08:59:43;;;;;;;8.78;4.87;;;;;;;10.95;37.92;99065.47;4375501;81;21081;-93
2021/04/27 09:05:45;;;;;;;7.65;4.42;;;;;;;10.92;38.57;99056.64;4377476;81;21132;-93
2021/04/27 09:11:47;;;;;;;8.15;3.83;;;;;;;11.60;37.73;99058.05;4353127;81;21148;-92
2021/04/27 09:17:49;;;;;;;10.43;4.97;;;;;;;12.15;37.43;99056.90;4376707;81;21120;-94
2021/04/27 09:23:51;;;;;;;11.25;5.60;;;;;;;12.57;36.77;99053.75;4374978;81;21155;-93
2021/04/27 09:29:58;;;;;;;10.13;5.87;;;;;;;12.53;34.01;99044.73;4378901;81;21120;-93
2021/04/27 09:36:07;;;;;;;10.55;5.72;;;;;;;12.99;34.64;99044.08;4380368;81;21144;-92
2021/04/27 09:42:38;;;;;;;8.30;4.95;;;;;;;13.86;33.96;99047.48;4381201;80;21137;-95
2021/04/27 09:48:51;;;;;;;7.65;4.87;;;;;;;14.68;34.88;99041.39;4380345;81;21152;-92
2021/04/27 09:55:18;;;;;;;9.40;5.83;;;;;;;14.57;32.35;99032.39;4381913;78;21144;-92
2021/04/27 10:01:20;;;;;;;9.15;5.53;;;;;;;15.08;30.57;99027.59;4381022;81;21263;-92
2021/04/27 10:55:52;;;;;;;8.90;5.72;;;;;;;17.40;26.77;98971.87;4501094;78;23460;-93
2021/04/27 11:02:17;;;;;;;10.60;5.53;;;;;;;16.78;26.53;98966.13;4398886;80;21176;-93
2021/04/27 11:08:19;;;;;;;7.85;5.03;;;;;;;16.90;27.15;98959.44;4434083;80;21598;-93
2021/04/27 11:14:24;;;;;;;11.33;7.00;;;;;;;17.14;25.11;98961.64;4384100;80;21855;-92
2021/04/27 11:20:50;;;;;;;9.80;5.40;;;;;;;17.16;27.33;98946.80;4421625;80;21109;-92
2021/04/27 11:27:33;;;;;;;10.13;5.45;;;;;;;17.21;26.50;98939.41;4460312;80;21141;-92
2021/04/27 11:39:56;;;;;;;14.75;6.08;;;;;;;17.64;26.42;98924.25;4177069;85;21140;-94
2021/04/27 11:46:28;;;;;;;;;;;;;;;;;;;;;
2021/04/27 11:53:06;;;;;;;8.55;5.40;;;;;;;17.25;24.74;98920.77;4411886;79;26168;-92
2021/04/27 11:59:28;;;;;;;9.88;6.67;;;;;;;17.27;25.15;98912.83;4345111;80;21181;-95
2021/04/27 12:05:37;;;;;;;9.48;6.08;;;;;;;16.96;25.13;98901.08;4328949;80;21356;-94
2021/04/27 12:11:39;;;;;;;7.37;4.70;;;;;;;16.53;24.36;98897.41;4345238;80;21189;-93
2021/04/27 12:18:10;;;;;;;8.63;5.33;;;;;;;16.20;22.56;98891.90;4477492;80;23443;-94
2021/04/27 12:24:44;;;;;;;7.92;5.10;;;;;;;15.41;24.73;98892.60;4418485;81;21170;-91
2021/04/27 12:30:46;;;;;;;8.25;5.33;;;;;;;15.05;24.63;98876.78;4415820;81;21160;-94
2021/04/27 12:36:56;;;;;;;10.13;5.78;;;;;;;15.07;24.95;98889.55;4415595;81;21212;-92
2021/04/27 12:43:05;;;;;;;13.62;5.22;;;;;;;14.82;25.52;98875.18;4433526;79;21147;-94
2021/04/27 12:49:16;;;;;;;8.70;5.50;;;;;;;14.99;25.51;98871.49;4472166;78;23296;-93
2021/04/27 13:02:15;;;;;;;10.20;5.65;;;;;;;14.49;25.60;98859.28;4336353;82;21165;-95
2021/04/27 13:08:16;;;;;;;7.53;5.30;;;;;;;14.41;25.55;98844.78;4318507;83;21501;-93
2021/04/27 13:14:31;;;;;;;8.88;5.50;;;;;;;14.55;24.99;98844.68;4334962;82;21165;-93
2021/04/27 13:20:45;;;;;;;9.53;5.12;;;;;;;14.53;25.55;98842.16;4320438;83;21185;-94
2021/04/27 13:27:01;;;;;;;8.38;4.78;;;;;;;14.31;25.79;98833.26;4334675;82;21514;-94
2021/04/27 13:33:15;;;;;;;8.50;5.25;;;;;;;14.47;25.85;98834.13;4315478;83;21173;-93
2021/04/27 13:39:16;;;;;;;14.13;6.40;;;;;;;14.31;26.03;98825.58;4332892;82;21149;-91
2021/04/27 13:45:18;;;;;;;9.53;4.25;;;;;;;14.47;26.33;98824.49;4321933;81;21280;-91
2021/04/27 13:51:20;;;;;;;9.55;4.85;;;;;;;14.46;26.08;98820.95;4348298;81;21153;-92
2021/04/27 13:57:22;;;;;;;10.20;4.80;;;;;;;14.30;26.15;98819.28;4379208;81;21181;-93
2021/04/27 14:03:33;;;;;;;10.63;4.90;;;;;;;14.29;26.24;98814.97;4392417;80;21552;-91
2021/04/27 14:09:39;;;;;;;9.45;4.90;;;;;;;14.40;26.07;98808.01;4390965;79;21149;-91
2021/04/27 14:15:49;;;;;;;9.75;5.78;;;;;;;14.35;26.56;98794.66;4394783;79;21189;-92
2021/04/27 14:21:50;;;;;;;7.83;4.50;;;;;;;14.29;26.46;98785.27;4419865;79;21167;-92
2021/04/27 14:27:52;;;;;;;7.72;4.90;;;;;;;13.99;26.73;98787.20;4405177;79;21170;-92
2021/04/27 14:33:54;;;;;;;10.00;4.80;;;;;;;13.89;26.64;98779.20;4420414;79;21175;-93
2021/04/27 14:39:57;;;;;;;7.78;5.10;;;;;;;13.67;26.45;98776.97;4308021;83;21369;-92
2021/04/27 14:46:00;;;;;;;8.80;5.42;;;;;;;13.47;26.49;98774.48;4368637;79;21177;-93
2021/04/27 14:52:03;;;;;;;10.88;5.67;;;;;;;13.41;26.49;98778.83;4374193;81;21177;-93
2021/04/27 14:58:04;;;;;;;12.63;5.62;;;;;;;13.41;26.76;98770.58;4358500;80;21172;-92
2021/04/27 15:04:09;;;;;;;8.85;5.72;;;;;;;13.33;26.85;98768.45;4401066;81;21168;-90
2021/04/27 15:10:12;;;;;;;11.50;5.30;;;;;;;13.19;27.19;98760.84;4351501;81;21137;-92
2021/04/27 15:16:13;;;;;;;9.90;6.05;;;;;;;13.16;27.38;98763.80;4324695;80;21156;-84
2021/04/27 15:22:16;;;;;;;11.55;5.80;;;;;;;12.93;27.63;98759.33;4340726;79;21155;-84
2021/04/27 15:28:18;;;;;;;11.97;5.62;;;;;;;12.70;27.88;98757.58;4353513;80;21165;-84
2021/04/27 15:34:22;;;;;;;8.93;5.40;;;;;;;12.47;28.25;98746.22;4348281;79;21183;-84
2021/04/27 15:40:42;;;;;;;;;;;;;;;;;;;;;
